Time;durP1;ratioP1;P1;durP2;ratioP2;P2;SDS_P1;SDS_P2;PMS_P1;PMS_P2;Temp;Humidity;BMP_temperature;BMP_pressure;BME280_temperature;BME280_humidity;BME280_pressure;Samples;Min_cycle;Max_cycle;Signal;HPM_P1;HPM_P2
2022/04/12 00:01:31;;;;;;;6.88;3.70;;;;;;;;;;4961109;28;20578;-77
2022/04/12 00:03:56;;;;;;;10.80;4.18;;;;;;;;;;4958572;28;20035;-79
2022/04/12 00:06:22;;;;;;;7.45;3.70;;;;;;;;;;4972388;28;20172;-79
2022/04/12 00:08:47;;;;;;;8.52;3.70;;;;;;;;;;4978588;28;20080;-79
2022/04/12 00:11:12;;;;;;;8.25;3.67;;;;;;;;;;4985156;28;20038;-79
2022/04/12 00:13:38;;;;;;;7.85;3.85;;;;;;;;;;4991410;28;20125;-78
2022/04/12 00:16:03;;;;;;;8.25;3.55;;;;;;;;;;4979614;28;20038;-77
2022/04/12 00:21:12;;;;;;;8.45;3.83;;;;;;;;;;4969992;28;20528;-78
2022/04/12 00:23:38;;;;;;;6.90;3.25;;;;;;;;;;4972653;28;20042;-78
2022/04/12 00:26:03;;;;;;;7.93;3.72;;;;;;;;;;4968418;28;20525;-77
2022/04/12 00:28:28;;;;;;;6.65;3.20;;;;;;;;;;4993267;28;20034;-78
2022/04/12 00:30:54;;;;;;;7.80;3.40;;;;;;;;;;4977154;28;20042;-79
2022/04/12 00:33:19;;;;;;;6.53;3.38;;;;;;;;;;4991107;28;20031;-78
2022/04/12 00:35:45;;;;;;;7.28;3.17;;;;;;;;;;4977097;28;20034;-78
2022/04/12 00:38:17;;;;;;;6.70;3.53;;;;;;;;;;4983265;28;20112;-78
2022/04/12 00:40:46;;;;;;;7.53;3.70;;;;;;;;;;4962245;28;20039;-79
2022/04/12 00:43:11;;;;;;;9.25;3.70;;;;;;;;;;4972651;28;20579;-78
2022/04/12 00:45:37;;;;;;;7.20;3.30;;;;;;;;;;4963219;28;20106;-79
2022/04/12 00:48:02;;;;;;;7.03;3.22;;;;;;;;;;4983302;28;20042;-79
2022/04/12 00:50:28;;;;;;;6.57;3.28;;;;;;;;;;4985323;28;20494;-77
2022/04/12 00:52:55;;;;;;;6.95;3.58;;;;;;;;;;4978567;28;20045;-79
2022/04/12 00:55:21;;;;;;;8.95;3.67;;;;;;;;;;4979613;28;20096;-78
2022/04/12 00:57:47;;;;;;;7.90;3.38;;;;;;;;;;4962505;28;20050;-79
2022/04/12 01:00:13;;;;;;;7.53;3.83;;;;;;;;;;4965836;28;20042;-78
2022/04/12 01:02:39;;;;;;;6.90;3.17;;;;;;;;;;4983769;28;20027;-78
2022/04/12 01:05:05;;;;;;;7.80;3.40;;;;;;;;;;4984828;28;20035;-77
2022/04/12 01:07:31;;;;;;;8.43;3.65;;;;;;;;;;4980739;28;20049;-78
2022/04/12 01:09:57;;;;;;;7.38;3.35;;;;;;;;;;4992843;28;20034;-78
2022/04/12 01:12:23;;;;;;;7.20;3.28;;;;;;;;;;4975081;28;20449;-78
2022/04/12 01:14:49;;;;;;;8.60;3.53;;;;;;;;;;4980067;28;20084;-78
2022/04/12 01:17:15;;;;;;;8.05;3.13;;;;;;;;;;4973827;28;20062;-78
2022/04/12 01:19:41;;;;;;;5.57;3.40;;;;;;;;;;4968781;28;20481;-79
2022/04/12 01:22:10;;;;;;;7.78;3.60;;;;;;;;;;4980857;28;20098;-78
2022/04/12 01:24:35;;;;;;;7.82;3.05;;;;;;;;;;4996066;28;20034;-78
2022/04/12 01:27:01;;;;;;;6.72;3.20;;;;;;;;;;4969292;28;20351;-78
2022/04/12 01:29:32;;;;;;;6.78;3.25;;;;;;;;;;4980838;28;20401;-78
2022/04/12 01:31:57;;;;;;;10.43;3.40;;;;;;;;;;4989494;28;20042;-79
2022/04/12 01:34:22;;;;;;;6.35;3.35;;;;;;;;;;4967551;28;20050;-79
2022/04/12 01:36:47;;;;;;;9.25;3.72;;;;;;;;;;4980992;28;20113;-78
2022/04/12 01:39:13;;;;;;;7.55;3.65;;;;;;;;;;4968004;28;20438;-79
2022/04/12 01:41:38;;;;;;;7.13;3.35;;;;;;;;;;4977272;28;20035;-78
2022/04/12 01:44:04;;;;;;;7.70;3.60;;;;;;;;;;4966762;28;20066;-78
2022/04/12 01:46:29;;;;;;;7.63;3.70;;;;;;;;;;4961279;28;20101;-78
2022/04/12 01:48:54;;;;;;;8.00;4.03;;;;;;;;;;4962933;28;20055;-79
2022/04/12 01:51:20;;;;;;;5.97;3.28;;;;;;;;;;4984151;28;20045;-78
2022/04/12 01:53:45;;;;;;;5.80;3.25;;;;;;;;;;4979868;28;20042;-78
2022/04/12 01:56:10;;;;;;;6.05;3.45;;;;;;;;;;4985521;28;20121;-78
2022/04/12 01:58:36;;;;;;;8.05;3.72;;;;;;;;;;4980349;28;20517;-78
2022/04/12 02:01:02;;;;;;;8.18;3.88;;;;;;;;;;4984637;28;20034;-79
2022/04/12 02:03:27;;;;;;;8.68;3.53;;;;;;;;;;4986771;28;20029;-78
2022/04/12 02:05:54;;;;;;;8.45;3.72;;;;;;;;;;4992692;28;20049;-78
2022/04/12 02:08:20;;;;;;;12.10;4.07;;;;;;;;;;4993601;28;20034;-79
2022/04/12 02:10:45;;;;;;;7.57;3.50;;;;;;;;;;4996842;28;20280;-79
2022/04/12 02:13:11;;;;;;;6.38;3.50;;;;;;;;;;4981934;28;20099;-78
2022/04/12 02:15:36;;;;;;;8.20;3.42;;;;;;;;;;4987158;28;20122;-78
2022/04/12 02:18:01;;;;;;;6.60;3.55;;;;;;;;;;4963977;28;20486;-78
2022/04/12 02:20:27;;;;;;;8.43;3.70;;;;;;;;;;4965084;28;20039;-79
2022/04/12 02:22:53;;;;;;;8.18;3.55;;;;;;;;;;4960344;28;20084;-79
2022/04/12 02:25:18;;;;;;;8.07;3.83;;;;;;;;;;4966535;28;20038;-79
2022/04/12 02:27:43;;;;;;;8.73;3.78;;;;;;;;;;4986230;28;20041;-79
2022/04/12 02:30:09;;;;;;;7.10;4.03;;;;;;;;;;4996400;28;20429;-80
2022/04/12 02:32:35;;;;;;;8.52;3.80;;;;;;;;;;4977829;28;20038;-79
2022/04/12 02:35:00;;;;;;;5.90;3.53;;;;;;;;;;4985875;28;20065;-78
2022/04/12 02:37:28;;;;;;;8.02;3.60;;;;;;;;;;4995937;28;20052;-79
2022/04/12 02:39:54;;;;;;;8.75;4.07;;;;;;;;;;4986525;28;20056;-77
2022/04/12 02:42:19;;;;;;;7.45;3.45;;;;;;;;;;4992846;28;20030;-78
2022/04/12 02:44:44;;;;;;;8.23;4.07;;;;;;;;;;4985454;28;20073;-79
2022/04/12 02:47:09;;;;;;;9.20;3.72;;;;;;;;;;4997339;28;20491;-79
2022/04/12 02:49:35;;;;;;;6.55;3.72;;;;;;;;;;4979049;28;20034;-78
2022/04/12 02:52:00;;;;;;;8.25;3.70;;;;;;;;;;4967295;28;20130;-78
2022/04/12 02:54:25;;;;;;;8.77;3.70;;;;;;;;;;4959324;28;20112;-80
2022/04/12 02:56:53;;;;;;;7.70;3.63;;;;;;;;;;4990637;28;20092;-78
2022/04/12 02:59:18;;;;;;;7.45;3.63;;;;;;;;;;4978350;28;20440;-78
2022/04/12 03:01:45;;;;;;;7.55;3.88;;;;;;;;;;4976733;28;20040;-79
2022/04/12 03:04:10;;;;;;;6.20;3.55;;;;;;;;;;4975644;28;20049;-79
2022/04/12 03:06:38;;;;;;;8.68;4.00;;;;;;;;;;4995522;28;20034;-79
2022/04/12 03:09:04;;;;;;;8.00;3.75;;;;;;;;;;4961786;28;20041;-79
2022/04/12 03:11:29;;;;;;;7.15;4.05;;;;;;;;;;4961946;28;20047;-78
2022/04/12 03:13:54;;;;;;;7.28;3.92;;;;;;;;;;4965149;28;20038;-78
2022/04/12 03:16:20;;;;;;;11.05;4.78;;;;;;;;;;4982725;28;20116;-79
2022/04/12 03:18:45;;;;;;;9.02;4.53;;;;;;;;;;4997097;28;20037;-79
2022/04/12 03:21:10;;;;;;;8.95;4.18;;;;;;;;;;4981996;28;20038;-79
2022/04/12 03:23:36;;;;;;;6.22;4.00;;;;;;;;;;4963449;28;20068;-79
2022/04/12 03:26:02;;;;;;;9.07;3.92;;;;;;;;;;4965313;28;20035;-79
2022/04/12 03:28:27;;;;;;;8.00;4.50;;;;;;;;;;4964761;28;20089;-81
2022/04/12 03:30:52;;;;;;;6.32;3.72;;;;;;;;;;4965745;28;20041;-80
2022/04/12 03:33:19;;;;;;;7.80;4.43;;;;;;;;;;4993749;28;20050;-81
2022/04/12 03:35:44;;;;;;;8.23;3.95;;;;;;;;;;4982524;28;20034;-81
2022/04/12 03:38:10;;;;;;;9.15;4.47;;;;;;;;;;4985606;28;20049;-81
2022/04/12 03:40:35;;;;;;;8.85;4.28;;;;;;;;;;4984981;28;20709;-81
2022/04/12 03:43:02;;;;;;;8.23;4.75;;;;;;;;;;4977736;28;20100;-81
2022/04/12 03:45:28;;;;;;;9.10;4.55;;;;;;;;;;4983406;28;20097;-81
2022/04/12 03:47:54;;;;;;;9.65;4.70;;;;;;;;;;4976830;28;20093;-81
2022/04/12 03:50:20;;;;;;;11.15;5.03;;;;;;;;;;4958708;28;20504;-81
2022/04/12 03:52:45;;;;;;;9.07;4.43;;;;;;;;;;4961304;28;20046;-81
2022/04/12 03:55:11;;;;;;;10.43;4.70;;;;;;;;;;4967154;28;20046;-81
2022/04/12 03:57:36;;;;;;;7.57;4.50;;;;;;;;;;4993216;28;20030;-82
2022/04/12 04:00:07;;;;;;;7.15;4.40;;;;;;;;;;4985933;28;20045;-81
2022/04/12 04:02:32;;;;;;;10.07;4.30;;;;;;;;;;5002319;28;20033;-81
2022/04/12 04:04:58;;;;;;;7.35;4.15;;;;;;;;;;4969514;28;20038;-81
2022/04/12 04:07:24;;;;;;;12.02;4.72;;;;;;;;;;4957325;28;20130;-81
2022/04/12 04:09:50;;;;;;;8.95;4.80;;;;;;;;;;4966998;28;20081;-81
2022/04/12 04:12:16;;;;;;;9.63;5.50;;;;;;;;;;4991989;28;20097;-80
2022/04/12 04:14:42;;;;;;;9.57;4.57;;;;;;;;;;4992478;28;20034;-81
2022/04/12 04:17:08;;;;;;;8.45;4.55;;;;;;;;;;4986327;28;20041;-79
2022/04/12 04:19:33;;;;;;;10.38;4.88;;;;;;;;;;4981676;28;20042;-80
2022/04/12 04:21:58;;;;;;;11.45;4.70;;;;;;;;;;4991718;28;20073;-81
2022/04/12 04:24:23;;;;;;;10.23;5.20;;;;;;;;;;4983516;28;20428;-80
2022/04/12 04:26:54;;;;;;;12.25;5.28;;;;;;;;;;4992376;28;20045;-80
2022/04/12 04:29:20;;;;;;;9.82;4.60;;;;;;;;;;4971478;28;20466;-80
2022/04/12 04:31:45;;;;;;;10.70;4.93;;;;;;;;;;4965483;28;20053;-81
2022/04/12 04:34:11;;;;;;;9.45;4.95;;;;;;;;;;4991182;28;20040;-82
2022/04/12 04:36:36;;;;;;;9.07;4.65;;;;;;;;;;4993247;28;20039;-81
2022/04/12 04:39:01;;;;;;;8.60;5.00;;;;;;;;;;4985336;28;20034;-80
2022/04/12 04:41:27;;;;;;;9.27;4.85;;;;;;;;;;4991694;28;20397;-80
2022/04/12 04:43:53;;;;;;;11.40;5.25;;;;;;;;;;4993113;28;20049;-80
2022/04/12 04:46:18;;;;;;;13.25;6.60;;;;;;;;;;4983302;28;20038;-80
2022/04/12 04:48:43;;;;;;;10.63;5.18;;;;;;;;;;4982349;28;20034;-80
2022/04/12 04:51:09;;;;;;;11.18;5.20;;;;;;;;;;4982869;28;20043;-80
2022/04/12 04:53:37;;;;;;;9.93;5.22;;;;;;;;;;4977921;28;20042;-84
2022/04/12 04:56:02;;;;;;;9.30;5.22;;;;;;;;;;4962120;28;20049;-84
2022/04/12 04:58:28;;;;;;;10.27;4.93;;;;;;;;;;4957934;28;20047;-84
2022/04/12 05:00:53;;;;;;;12.68;5.63;;;;;;;;;;4976527;28;20517;-85
2022/04/12 05:03:18;;;;;;;14.57;6.55;;;;;;;;;;4984638;28;20513;-84
2022/04/12 05:05:43;;;;;;;10.48;5.85;;;;;;;;;;4995402;28;20517;-84
2022/04/12 05:08:09;;;;;;;10.30;5.70;;;;;;;;;;4980924;28;20088;-83
2022/04/12 05:10:34;;;;;;;12.70;5.68;;;;;;;;;;4983054;28;20039;-86
2022/04/12 05:13:01;;;;;;;9.63;5.38;;;;;;;;;;4975654;28;20034;-84
2022/04/12 05:15:29;;;;;;;10.77;5.75;;;;;;;;;;4978800;28;20450;-84
2022/04/12 05:17:55;;;;;;;12.73;5.10;;;;;;;;;;4964056;28;20039;-84
2022/04/12 05:20:23;;;;;;;13.27;5.55;;;;;;;;;;4975598;28;20046;-85
2022/04/12 05:22:49;;;;;;;11.32;5.47;;;;;;;;;;4975459;28;20039;-84
2022/04/12 05:25:15;;;;;;;10.68;5.88;;;;;;;;;;4961517;28;20038;-82
2022/04/12 05:27:41;;;;;;;10.63;5.57;;;;;;;;;;4977876;28;20038;-82
2022/04/12 05:30:08;;;;;;;13.18;5.78;;;;;;;;;;4975083;28;20050;-82
2022/04/12 05:32:36;;;;;;;8.73;5.38;;;;;;;;;;4982442;28;20381;-82
2022/04/12 05:35:02;;;;;;;12.40;6.10;;;;;;;;;;4997211;28;20033;-81
2022/04/12 05:37:29;;;;;;;8.90;4.88;;;;;;;;;;4977183;28;20502;-82
2022/04/12 05:39:55;;;;;;;10.10;5.75;;;;;;;;;;4973418;28;20038;-82
2022/04/12 05:42:20;;;;;;;11.20;5.93;;;;;;;;;;4974214;28;20047;-82
2022/04/12 05:44:47;;;;;;;11.70;5.88;;;;;;;;;;4974749;28;20039;-82
2022/04/12 05:47:13;;;;;;;11.33;5.37;;;;;;;;;;4980170;28;20042;-82
2022/04/12 05:49:38;;;;;;;13.48;5.75;;;;;;;;;;4968562;28;20274;-82
2022/04/12 05:52:04;;;;;;;9.48;5.10;;;;;;;;;;4977317;28;20034;-83
2022/04/12 05:54:29;;;;;;;13.38;5.63;;;;;;;;;;4987000;28;20042;-82
2022/04/12 05:56:54;;;;;;;8.73;5.43;;;;;;;;;;4987662;28;20523;-82
2022/04/12 05:59:22;;;;;;;13.68;6.03;;;;;;;;;;4978292;28;20141;-83
2022/04/12 06:01:48;;;;;;;9.02;5.00;;;;;;;;;;4966202;28;20038;-82
2022/04/12 06:04:13;;;;;;;13.10;5.57;;;;;;;;;;4967613;28;20081;-81
2022/04/12 06:06:41;;;;;;;10.80;5.30;;;;;;;;;;4961894;28;20038;-82
2022/04/12 06:09:08;;;;;;;9.80;5.45;;;;;;;;;;4965162;28;20030;-82
2022/04/12 06:11:34;;;;;;;8.57;5.00;;;;;;;;;;4987681;28;20065;-82
2022/04/12 06:13:59;;;;;;;8.15;5.32;;;;;;;;;;5003606;28;20042;-82
2022/04/12 06:16:25;;;;;;;11.95;5.60;;;;;;;;;;4985955;28;20041;-82
2022/04/12 06:18:50;;;;;;;10.05;5.10;;;;;;;;;;4995095;28;20048;-82
2022/04/12 06:21:15;;;;;;;9.07;4.90;;;;;;;;;;4980462;28;20077;-82
2022/04/12 06:23:41;;;;;;;12.18;5.07;;;;;;;;;;4977959;28;20583;-82
2022/04/12 06:26:06;;;;;;;9.55;4.97;;;;;;;;;;4979604;28;20105;-82
2022/04/12 06:28:32;;;;;;;11.13;5.10;;;;;;;;;;4994190;28;20463;-83
2022/04/12 06:31:00;;;;;;;9.07;4.85;;;;;;;;;;4973799;28;20439;-83
2022/04/12 06:33:26;;;;;;;10.75;5.18;;;;;;;;;;4977453;28;20042;-82
2022/04/12 06:35:51;;;;;;;10.13;5.30;;;;;;;;;;4962709;28;20550;-82
2022/04/12 06:38:18;;;;;;;8.57;5.18;;;;;;;;;;4965568;28;20167;-84
2022/04/12 06:40:44;;;;;;;9.35;5.32;;;;;;;;;;4972307;28;20034;-82
2022/04/12 06:43:10;;;;;;;11.52;5.00;;;;;;;;;;4984110;28;20038;-82
2022/04/12 06:45:36;;;;;;;7.22;4.65;;;;;;;;;;4962267;28;20101;-83
2022/04/12 06:48:01;;;;;;;11.32;4.93;;;;;;;;;;4975822;28;20035;-82
2022/04/12 06:50:27;;;;;;;12.63;5.13;;;;;;;;;;4969065;28;20676;-81
2022/04/12 06:52:54;;;;;;;10.25;4.60;;;;;;;;;;4982257;28;20057;-83
2022/04/12 06:55:19;;;;;;;8.85;4.10;;;;;;;;;;4994744;28;20031;-83
2022/04/12 06:57:45;;;;;;;8.55;4.28;;;;;;;;;;4995843;28;20038;-82
2022/04/12 07:00:11;;;;;;;9.63;4.55;;;;;;;;;;4987462;28;20041;-83
2022/04/12 07:02:37;;;;;;;8.23;4.30;;;;;;;;;;4972767;28;20410;-82
2022/04/12 07:05:06;;;;;;;7.28;4.15;;;;;;;;;;4966304;28;20042;-82
2022/04/12 07:07:32;;;;;;;12.38;4.55;;;;;;;;;;4965776;28;20074;-82
2022/04/12 07:09:57;;;;;;;7.43;3.80;;;;;;;;;;4974411;28;20462;-82
2022/04/12 07:12:24;;;;;;;9.63;3.95;;;;;;;;;;4994202;28;20095;-83
2022/04/12 07:14:50;;;;;;;9.23;3.90;;;;;;;;;;4992680;28;20279;-83
2022/04/12 07:17:15;;;;;;;9.50;4.47;;;;;;;;;;4985822;28;20117;-83
2022/04/12 07:19:44;;;;;;;7.88;4.28;;;;;;;;;;4998066;28;20038;-82
2022/04/12 07:22:12;;;;;;;9.50;3.90;;;;;;;;;;4993373;28;20053;-82
2022/04/12 07:24:40;;;;;;;9.55;4.18;;;;;;;;;;4996976;28;20126;-82
2022/04/12 07:27:05;;;;;;;;;;;;;;;;;;4985383;28;20046;-82
2022/04/12 07:29:30;;;;;;;7.15;3.65;;;;;;;;;;4968235;28;20417;-83
2022/04/12 07:31:57;;;;;;;9.10;3.88;;;;;;;;;;4956180;28;20092;-84
2022/04/12 07:34:22;;;;;;;8.82;3.60;;;;;;;;;;4971288;28;20414;-83
2022/04/12 07:37:02;;;;;;;8.10;3.30;;;;;;;;;;4994925;28;20034;-82
2022/04/12 07:39:27;;;;;;;12.00;3.47;;;;;;;;;;4981120;28;20042;-83
2022/04/12 07:41:53;;;;;;;7.35;3.78;;;;;;;;;;4984767;28;20434;-83
2022/04/12 07:44:19;;;;;;;11.23;3.78;;;;;;;;;;4984063;28;20046;-83
2022/04/12 07:46:45;;;;;;;8.63;3.88;;;;;;;;;;4979466;28;20113;-83
2022/04/12 07:49:11;;;;;;;7.28;3.67;;;;;;;;;;4992889;28;20569;-83
2022/04/12 07:51:37;;;;;;;6.60;3.38;;;;;;;;;;4975879;28;20038;-83
2022/04/12 07:54:03;;;;;;;6.78;3.50;;;;;;;;;;4990522;28;20044;-82
2022/04/12 07:56:29;;;;;;;6.00;3.15;;;;;;;;;;4983554;28;20034;-83
2022/04/12 07:58:58;;;;;;;10.10;3.47;;;;;;;;;;4983386;28;20038;-85
2022/04/12 08:01:23;;;;;;;7.90;3.42;;;;;;;;;;4983709;28;20389;-82
2022/04/12 08:03:48;;;;;;;6.35;3.67;;;;;;;;;;4984004;28;20034;-83
2022/04/12 08:06:14;;;;;;;9.20;3.42;;;;;;;;;;4976262;28;20034;-82
2022/04/12 08:08:43;;;;;;;6.38;3.30;;;;;;;;;;4986378;28;20515;-82
2022/04/12 08:11:15;;;;;;;7.97;3.90;;;;;;;;;;4990267;28;20042;-84
2022/04/12 08:13:41;;;;;;;7.13;3.30;;;;;;;;;;4956246;28;20117;-83
2022/04/12 08:16:08;;;;;;;11.75;3.25;;;;;;;;;;4958190;28;20038;-82
2022/04/12 08:18:36;;;;;;;7.93;3.72;;;;;;;;;;4971677;28;21509;-83
2022/04/12 08:21:01;;;;;;;7.18;3.50;;;;;;;;;;4958635;28;20580;-84
2022/04/12 08:23:27;;;;;;;7.35;3.50;;;;;;;;;;4982186;28;20039;-83
2022/04/12 08:25:53;;;;;;;6.60;3.58;;;;;;;;;;4991341;28;20080;-83
2022/04/12 08:28:19;;;;;;;6.90;3.92;;;;;;;;;;4978602;28;20034;-84
2022/04/12 08:30:44;;;;;;;7.00;3.67;;;;;;;;;;4964846;28;20047;-85
2022/04/12 08:33:09;;;;;;;6.30;3.65;;;;;;;;;;4965992;28;20383;-84
2022/04/12 08:35:35;;;;;;;7.07;3.97;;;;;;;;;;4974408;28;20077;-84
2022/04/12 08:38:00;;;;;;;7.25;3.58;;;;;;;;;;4965104;28;20463;-85
2022/04/12 08:40:25;;;;;;;6.35;3.45;;;;;;;;;;4959423;28;20398;-84
2022/04/12 08:42:53;;;;;;;9.23;4.15;;;;;;;;;;4959938;28;20114;-85
2022/04/12 08:45:18;;;;;;;8.45;3.67;;;;;;;;;;4960102;28;20074;-83
2022/04/12 08:47:43;;;;;;;8.68;4.10;;;;;;;;;;4979663;28;20038;-85
2022/04/12 08:50:10;;;;;;;9.68;3.95;;;;;;;;;;4984340;28;20034;-84
2022/04/12 08:52:36;;;;;;;5.95;3.40;;;;;;;;;;4991948;28;20038;-85
2022/04/12 08:55:03;;;;;;;5.82;3.70;;;;;;;;;;5001687;28;20501;-84
2022/04/12 08:57:29;;;;;;;7.78;3.75;;;;;;;;;;4993548;28;20571;-84
2022/04/12 08:59:54;;;;;;;7.55;4.22;;;;;;;;;;4983649;28;20038;-84
2022/04/12 09:02:19;;;;;;;12.65;6.47;;;;;;;;;;4959209;28;20055;-84
2022/04/12 09:04:45;;;;;;;6.50;3.70;;;;;;;;;;4963880;28;20043;-85
2022/04/12 09:07:13;;;;;;;6.60;3.83;;;;;;;;;;4976391;28;20038;-83
2022/04/12 09:09:43;;;;;;;7.07;3.90;;;;;;;;;;4963765;28;20046;-84
2022/04/12 09:12:31;;;;;;;8.27;3.83;;;;;;;;;;4986532;28;20045;-86
2022/04/12 09:14:58;;;;;;;7.25;3.55;;;;;;;;;;4963026;28;20509;-84
2022/04/12 09:17:36;;;;;;;9.02;3.60;;;;;;;;;;4991705;28;20393;-84
2022/04/12 09:20:10;;;;;;;6.82;3.72;;;;;;;;;;4982045;28;20049;-84
2022/04/12 09:22:35;;;;;;;6.75;3.92;;;;;;;;;;4961317;28;21080;-85
2022/04/12 09:25:02;;;;;;;8.27;3.95;;;;;;;;;;4963772;28;20035;-84
2022/04/12 09:27:33;;;;;;;6.45;3.42;;;;;;;;;;4967405;28;20538;-84
2022/04/12 09:30:01;;;;;;;7.95;3.58;;;;;;;;;;4977711;28;20050;-84
2022/04/12 09:32:28;;;;;;;5.70;3.20;;;;;;;;;;4970537;28;20398;-83
2022/04/12 09:34:54;;;;;;;6.43;3.42;;;;;;;;;;4959017;28;20089;-83
2022/04/12 09:37:22;;;;;;;5.55;3.25;;;;;;;;;;4975693;28;20514;-82
2022/04/12 09:40:04;;;;;;;5.78;3.80;;;;;;;;;;4995948;28;20129;-84
2022/04/12 09:42:35;;;;;;;7.70;3.47;;;;;;;;;;4987323;28;20038;-83
2022/04/12 09:45:02;;;;;;;6.72;3.10;;;;;;;;;;4996033;28;20050;-82
2022/04/12 09:47:30;;;;;;;8.55;3.45;;;;;;;;;;4985472;28;20371;-85
2022/04/12 09:49:56;;;;;;;5.15;3.28;;;;;;;;;;4981970;28;20034;-83
2022/04/12 09:52:22;;;;;;;6.38;3.33;;;;;;;;;;4979870;28;20042;-85
2022/04/12 09:54:47;;;;;;;6.65;3.42;;;;;;;;;;4987282;28;20516;-83
2022/04/12 09:57:13;;;;;;;5.78;3.50;;;;;;;;;;4987066;28;20034;-84
2022/04/12 09:59:39;;;;;;;6.65;3.47;;;;;;;;;;4981365;28;20996;-84
2022/04/12 10:02:05;;;;;;;6.40;3.28;;;;;;;;;;4992495;28;20490;-82
2022/04/12 10:04:36;;;;;;;8.50;3.00;;;;;;;;;;4980535;28;20042;-84
2022/04/12 10:07:02;;;;;;;5.82;3.45;;;;;;;;;;4965303;28;20043;-85
2022/04/12 10:09:28;;;;;;;7.63;3.20;;;;;;;;;;4965159;28;20585;-83
2022/04/12 10:11:53;;;;;;;5.75;3.17;;;;;;;;;;4987633;28;20038;-85
2022/04/12 10:14:18;;;;;;;8.13;3.50;;;;;;;;;;4986025;28;20595;-83
2022/04/12 10:16:47;;;;;;;6.32;3.47;;;;;;;;;;4981244;28;20121;-85
2022/04/12 10:19:13;;;;;;;7.25;3.40;;;;;;;;;;4983834;28;20031;-85
2022/04/12 10:21:38;;;;;;;6.68;3.72;;;;;;;;;;4988676;28;20034;-83
2022/04/12 10:24:04;;;;;;;7.65;3.67;;;;;;;;;;4965093;28;20460;-85
2022/04/12 10:26:29;;;;;;;7.07;3.55;;;;;;;;;;4966740;28;20402;-85
2022/04/12 10:29:00;;;;;;;6.95;3.50;;;;;;;;;;4966327;28;20027;-86
2022/04/12 10:31:30;;;;;;;7.20;3.40;;;;;;;;;;4969463;28;20125;-86
2022/04/12 10:34:09;;;;;;;6.80;3.50;;;;;;;;;;4981171;28;20033;-85
2022/04/12 10:37:00;;;;;;;6.28;3.50;;;;;;;;;;4991395;28;20042;-84
2022/04/12 10:39:33;;;;;;;6.00;3.50;;;;;;;;;;4966128;28;20066;-83
2022/04/12 10:42:10;;;;;;;6.30;3.67;;;;;;;;;;4965735;28;20379;-85
2022/04/12 10:44:46;;;;;;;6.50;3.65;;;;;;;;;;4974553;28;20069;-83
2022/04/12 10:47:42;;;;;;;6.93;3.60;;;;;;;;;;4965271;28;20042;-84
2022/04/12 10:50:10;;;;;;;6.47;3.42;;;;;;;;;;4961383;28;20051;-84
2022/04/12 10:52:46;;;;;;;7.75;3.47;;;;;;;;;;4977230;28;20044;-84
2022/04/12 10:55:14;;;;;;;9.18;4.10;;;;;;;;;;4980238;28;20052;-83
2022/04/12 10:57:39;;;;;;;6.88;3.78;;;;;;;;;;4959286;28;20121;-85
2022/04/12 11:00:16;;;;;;;8.40;3.67;;;;;;;;;;4974644;28;20113;-83
2022/04/12 11:02:42;;;;;;;7.05;3.53;;;;;;;;;;4966045;28;20101;-83
2022/04/12 11:05:40;;;;;;;7.22;3.75;;;;;;;;;;4960651;28;20034;-84
2022/04/12 11:08:33;;;;;;;6.03;3.78;;;;;;;;;;4971161;28;20141;-83
2022/04/12 11:10:59;;;;;;;6.55;3.85;;;;;;;;;;4975551;28;20041;-84
2022/04/12 11:13:28;;;;;;;6.82;3.75;;;;;;;;;;4981245;28;20046;-84
2022/04/12 11:15:55;;;;;;;8.55;3.92;;;;;;;;;;4975938;28;20418;-84
2022/04/12 11:18:21;;;;;;;7.88;3.83;;;;;;;;;;5003598;28;20544;-86
2022/04/12 11:21:00;;;;;;;7.80;4.03;;;;;;;;;;4949727;28;20177;-86
2022/04/12 11:23:47;;;;;;;5.75;3.65;;;;;;;;;;4982819;28;20050;-84
2022/04/12 11:26:36;;;;;;;6.10;3.50;;;;;;;;;;4974463;28;20043;-84
2022/04/12 11:29:02;;;;;;;6.85;3.88;;;;;;;;;;4975080;28;20520;-85
2022/04/12 11:31:27;;;;;;;8.75;3.88;;;;;;;;;;4963320;28;20057;-85
2022/04/12 11:33:53;;;;;;;7.75;4.03;;;;;;;;;;4959884;28;20038;-84
2022/04/12 11:36:19;;;;;;;7.22;4.15;;;;;;;;;;4974086;28;20033;-84
2022/04/12 11:38:44;;;;;;;6.70;3.53;;;;;;;;;;4980484;28;20124;-85
2022/04/12 11:41:10;;;;;;;7.28;3.97;;;;;;;;;;4957928;28;20066;-85
2022/04/12 11:43:35;;;;;;;6.53;3.58;;;;;;;;;;4962871;28;20093;-84
2022/04/12 11:46:03;;;;;;;5.97;3.60;;;;;;;;;;4959611;28;20122;-83
2022/04/12 11:48:30;;;;;;;6.45;3.58;;;;;;;;;;4960478;28;20077;-84
2022/04/12 11:50:56;;;;;;;5.80;3.50;;;;;;;;;;4960922;28;20121;-86
2022/04/12 11:53:23;;;;;;;7.45;3.80;;;;;;;;;;4966717;28;20097;-84
2022/04/12 11:55:49;;;;;;;5.78;3.72;;;;;;;;;;4976333;28;20054;-85
2022/04/12 11:58:15;;;;;;;8.05;3.88;;;;;;;;;;4956384;28;20027;-84
2022/04/12 12:00:41;;;;;;;6.80;3.50;;;;;;;;;;4957990;28;20042;-84
2022/04/12 12:03:16;;;;;;;5.80;3.60;;;;;;;;;;4962396;28;20030;-84
2022/04/12 12:05:42;;;;;;;6.95;3.72;;;;;;;;;;4979041;28;20046;-83
2022/04/12 12:08:08;;;;;;;6.60;3.35;;;;;;;;;;4981389;28;20038;-84
2022/04/12 12:10:34;;;;;;;6.18;3.47;;;;;;;;;;4969991;28;20497;-84
2022/04/12 12:13:04;;;;;;;6.78;3.40;;;;;;;;;;4983926;28;20062;-84
2022/04/12 12:15:30;;;;;;;7.75;3.60;;;;;;;;;;4984233;28;20045;-85
2022/04/12 12:17:59;;;;;;;7.00;3.90;;;;;;;;;;4991593;28;20034;-85
2022/04/12 12:20:27;;;;;;;5.72;3.35;;;;;;;;;;4962738;28;20042;-85
2022/04/12 12:22:56;;;;;;;;;;;;;;;;;;4966330;28;20034;-83
2022/04/12 12:25:39;;;;;;;7.07;3.30;;;;;;;;;;4961464;28;20388;-84
2022/04/12 12:28:17;;;;;;;6.00;3.50;;;;;;;;;;4977937;28;20513;-83
2022/04/12 12:30:43;;;;;;;7.43;3.70;;;;;;;;;;4964449;28;20121;-83
2022/04/12 12:33:09;;;;;;;7.15;3.22;;;;;;;;;;4972462;28;20402;-83
2022/04/12 12:35:37;;;;;;;7.20;3.70;;;;;;;;;;4968787;28;20100;-83
2022/04/12 12:38:09;;;;;;;6.72;3.95;;;;;;;;;;4978627;28;20057;-84
2022/04/12 12:40:36;;;;;;;6.75;4.10;;;;;;;;;;4997463;28;20091;-84
2022/04/12 12:43:03;;;;;;;8.98;4.80;;;;;;;;;;4991993;28;20525;-84
2022/04/12 12:45:28;;;;;;;8.83;3.93;;;;;;;;;;4980661;28;20445;-83
2022/04/12 12:47:55;;;;;;;5.88;3.22;;;;;;;;;;4960535;28;20138;-83
2022/04/12 12:50:22;;;;;;;7.15;4.20;;;;;;;;;;4960003;28;20117;-84
2022/04/12 12:52:48;;;;;;;7.93;3.92;;;;;;;;;;4984937;28;20041;-85
2022/04/12 12:55:23;;;;;;;6.95;3.42;;;;;;;;;;4982443;28;20608;-83
2022/04/12 12:57:53;;;;;;;7.32;3.70;;;;;;;;;;4963887;28;20042;-84
2022/04/12 13:00:25;;;;;;;7.63;3.97;;;;;;;;;;4959133;28;20049;-83
2022/04/12 13:03:11;;;;;;;7.68;3.97;;;;;;;;;;4980519;28;20058;-83
2022/04/12 13:05:42;;;;;;;6.97;3.42;;;;;;;;;;4980326;28;20039;-83
2022/04/12 13:08:08;;;;;;;7.32;3.60;;;;;;;;;;4976890;28;20030;-83
2022/04/12 13:10:37;;;;;;;8.25;3.97;;;;;;;;;;4959782;28;20461;-83
2022/04/12 13:13:04;;;;;;;8.52;3.72;;;;;;;;;;4984728;28;20035;-83
2022/04/12 13:15:30;;;;;;;8.27;3.70;;;;;;;;;;4970987;28;20045;-83
2022/04/12 13:17:56;;;;;;;7.47;3.53;;;;;;;;;;4997711;28;20091;-84
2022/04/12 13:20:21;;;;;;;6.28;3.78;;;;;;;;;;4994207;28;20050;-84
2022/04/12 13:22:47;;;;;;;8.32;3.85;;;;;;;;;;4967214;28;20105;-82
2022/04/12 13:25:19;;;;;;;7.35;3.80;;;;;;;;;;4977329;28;20076;-84
2022/04/12 13:27:49;;;;;;;7.40;3.80;;;;;;;;;;4987132;28;20121;-83
2022/04/12 13:30:15;;;;;;;6.47;3.80;;;;;;;;;;4986465;28;20050;-83
2022/04/12 13:32:42;;;;;;;5.90;3.78;;;;;;;;;;4986480;28;20034;-82
2022/04/12 13:35:08;;;;;;;9.88;4.20;;;;;;;;;;5009674;28;20037;-86
2022/04/12 13:37:33;;;;;;;8.13;4.00;;;;;;;;;;4981040;28;20030;-83
2022/04/12 13:39:58;;;;;;;7.05;4.00;;;;;;;;;;4985486;28;20128;-83
2022/04/12 13:42:24;;;;;;;5.90;3.58;;;;;;;;;;4998096;28;20109;-83
2022/04/12 13:44:52;;;;;;;7.68;3.55;;;;;;;;;;4961130;28;20053;-84
2022/04/12 13:47:17;;;;;;;;;;;;;;;;;;4978900;28;20038;-84
2022/04/12 13:49:43;;;;;;;6.63;4.25;;;;;;;;;;4997552;28;19918;-85
2022/04/12 13:52:08;;;;;;;7.30;3.92;;;;;;;;;;4986355;28;20065;-84
2022/04/12 13:54:33;;;;;;;7.68;4.30;;;;;;;;;;4994689;28;20038;-85
2022/04/12 13:56:59;;;;;;;7.53;4.30;;;;;;;;;;4959669;28;20038;-84
2022/04/12 13:59:25;;;;;;;6.82;3.70;;;;;;;;;;4979772;28;20046;-83
2022/04/12 14:01:51;;;;;;;8.50;3.90;;;;;;;;;;4974551;28;20486;-83
2022/04/12 14:04:17;;;;;;;6.97;3.65;;;;;;;;;;4983196;28;20034;-84
2022/04/12 14:06:43;;;;;;;8.00;3.80;;;;;;;;;;4963059;28;20039;-83
2022/04/12 14:09:08;;;;;;;6.03;3.20;;;;;;;;;;4976633;28;20031;-84
2022/04/12 14:11:34;;;;;;;5.22;2.80;;;;;;;;;;4975456;28;20031;-84
2022/04/12 14:14:02;;;;;;;6.10;2.85;;;;;;;;;;4968067;28;20034;-84
2022/04/12 14:16:28;;;;;;;8.30;2.97;;;;;;;;;;4959926;28;20486;-83
2022/04/12 14:18:53;;;;;;;5.78;2.72;;;;;;;;;;4967816;28;20030;-84
2022/04/12 14:21:19;;;;;;;5.78;2.90;;;;;;;;;;4980249;28;20493;-84
2022/04/12 14:23:44;;;;;;;4.43;2.47;;;;;;;;;;4993100;28;20038;-83
2022/04/12 14:26:10;;;;;;;4.35;2.78;;;;;;;;;;4968669;28;20043;-83
2022/04/12 14:28:36;;;;;;;4.93;3.08;;;;;;;;;;4966382;28;20072;-84
2022/04/12 14:31:03;;;;;;;4.88;2.92;;;;;;;;;;4966378;28;20048;-86
2022/04/12 14:33:28;;;;;;;4.80;2.67;;;;;;;;;;4984233;28;20029;-83
2022/04/12 14:35:54;;;;;;;5.38;2.78;;;;;;;;;;4983155;28;20026;-83
2022/04/12 14:38:23;;;;;;;4.60;2.33;;;;;;;;;;4984689;28;20057;-83
2022/04/12 14:40:52;;;;;;;5.13;2.45;;;;;;;;;;4975096;28;20030;-82
2022/04/12 14:43:17;;;;;;;5.25;2.60;;;;;;;;;;4984484;28;20343;-84